^^
Saratoga-Weather Station Historical Data
Daily Summary for December 29, 2021 Units:  English    Metric   Both
Daily Weekly Monthly Yearly Custom
  High: Low: Average:
Temperature: 56.7 °F 46.2 °F 49.6 °F
Dew Point: 54.9 °F 44.6 °F 47.8 °F
Humidity: 96% 88% 93%
Wind Speed: 18mph 0mph 3.7mph
Wind Gust: 20mph - -
Wind- - WSW
Pressure: 29.9 in 29.6 in -
Precipitation: 0.16 in    
Historical Graphs
 
 
Tabular Data for December 29, 2021
Time Temperature Dew Point Pressure Wind Wind Speed Wind Gust Humidity Rainfall Rate (Hourly) solar
00:00 47.8 °F 45.3 °F 29.6 in West 10.1 mph 17 mph 91% 0 in 0 W/m2
00:05 48 °F 45.5 °F 29.6 in West 10.1 mph 16 mph 91% 0 in 0 W/m2
00:10 48 °F 45.5 °F 29.6 in SW 2 mph 18 mph 91% 0 in 0 W/m2
00:15 48 °F 45.5 °F 29.6 in WSW 6.9 mph 12 mph 91% 0 in 0 W/m2
00:20 47.8 °F 45.3 °F 29.6 in West 6.9 mph 15 mph 91% 0 in 0 W/m2
00:25 48 °F 45.1 °F 29.6 in WSW 8.9 mph 17 mph 90% 0 in 0 W/m2
00:30 48 °F 45.1 °F 29.6 in NNW 12.1 mph 13 mph 90% 0 in 0 W/m2
00:35 48.2 °F 45.3 °F 29.6 in SW 10.1 mph 14 mph 90% 0 in 0 W/m2
00:40 48.2 °F 45.3 °F 29.6 in NW 4 mph 12 mph 90% 0 in 0 W/m2
00:45 48.2 °F 45.3 °F 29.6 in West 6.9 mph 14 mph 90% 0 in 0 W/m2
00:50 48.4 °F 45.3 °F 29.6 in WNW 10.1 mph 13 mph 89% 0 in 0 W/m2
00:55 48.4 °F 45.3 °F 29.6 in West 6.9 mph 15 mph 89% 0 in 0 W/m2
01:01 48.4 °F 45.3 °F 29.7 in West 8.1 mph 10 mph 89% 0 in 0 W/m2
01:06 48.6 °F 45.1 °F 29.7 in WSW 4.9 mph 11 mph 88% 0 in 0 W/m2
01:11 48.6 °F 45.1 °F 29.7 in West 8.1 mph 9 mph 88% 0 in 0 W/m2
01:16 48.6 °F 45.1 °F 29.7 in West 10.1 mph 10 mph 88% 0 in 0 W/m2
01:21 48.6 °F 45.1 °F 29.7 in WNW 10.1 mph 10 mph 88% 0 in 0 W/m2
01:26 48.6 °F 45.1 °F 29.7 in WNW 2.9 mph 10 mph 88% 0 in 0 W/m2
01:31 48.6 °F 45.1 °F 29.7 in West 8.9 mph 14 mph 88% 0 in 0 W/m2
01:36 48.6 °F 45.5 °F 29.7 in West 14.1 mph 17 mph 89% 0 in 0 W/m2
01:41 48.6 °F 45.5 °F 29.7 in West 6 mph 12 mph 89% 0 in 0 W/m2
01:46 48.6 °F 45.5 °F 29.7 in WSW 8.1 mph 12 mph 89% 0 in 0 W/m2
01:51 48.6 °F 45.5 °F 29.7 in NW 2.9 mph 11 mph 89% 0 in 0 W/m2
01:56 48.6 °F 45.5 °F 29.7 in West 6.9 mph 10 mph 89% 0 in 0 W/m2
02:01 48.6 °F 45.5 °F 29.7 in WSW 8.1 mph 10 mph 89% 0 in 0 W/m2
02:06 48.6 °F 45.5 °F 29.7 in WSW 4.9 mph 10 mph 89% 0 in 0 W/m2
02:11 48.6 °F 45.5 °F 29.7 in NW 4 mph 9 mph 89% 0 in 0 W/m2
02:16 48.4 °F 45.3 °F 29.7 in WNW 4.9 mph 10 mph 89% 0 in 0 W/m2
02:21 48.4 °F 45.3 °F 29.7 in NNE 4 mph 7 mph 89% 0 in 0 W/m2
02:26 48.4 °F 45.3 °F 29.7 in WNW 10.1 mph 13 mph 89% 0 in 0 W/m2
02:31 48.6 °F 45.5 °F 29.7 in WNW 8.9 mph 12 mph 89% 0 in 0 W/m2
02:36 48.6 °F 45.5 °F 29.7 in West 4 mph 10 mph 89% 0 in 0 W/m2
02:41 48.6 °F 45.5 °F 29.7 in WNW 2 mph 10 mph 89% 0 in 0 W/m2
02:46 48.4 °F 45.3 °F 29.7 in NW 8.1 mph 12 mph 89% 0 in 0 W/m2
02:51 48.2 °F 45.1 °F 29.7 in WNW 8.9 mph 14 mph 89% 0 in 0 W/m2
02:56 48.2 °F 45.1 °F 29.7 in WNW 8.1 mph 15 mph 89% 0 in 0 W/m2
03:01 48.2 °F 45.1 °F 29.7 in WSW 4.9 mph 10 mph 89% 0 in 0 W/m2
03:06 48.2 °F 45.1 °F 29.7 in West 2.9 mph 15 mph 89% 0 in 0 W/m2
03:11 48 °F 45 °F 29.7 in West 6 mph 6 mph 89% 0 in 0 W/m2
03:16 48.2 °F 45.1 °F 29.7 in WNW 8.1 mph 11 mph 89% 0 in 0 W/m2
03:21 48.4 °F 45.3 °F 29.7 in WSW 0.9 mph 10 mph 89% 0 in 0 W/m2
03:26 48.4 °F 45.3 °F 29.7 in West 2 mph 9 mph 89% 0 in 0 W/m2
03:31 48.2 °F 45.3 °F 29.7 in WNW 2 mph 4 mph 90% 0 in 0 W/m2
03:36 48.2 °F 45.3 °F 29.7 in WSW 2.9 mph 12 mph 90% 0 in 0 W/m2
03:41 48 °F 45.1 °F 29.7 in West 8.9 mph 12 mph 90% 0 in 0 W/m2
03:46 48 °F 45.1 °F 29.7 in WSW 4 mph 10 mph 90% 0 in 0 W/m2
03:51 48 °F 45.1 °F 29.7 in WSW 6.9 mph 12 mph 90% 0 in 0 W/m2
03:56 47.8 °F 45 °F 29.7 in WNW 4 mph 10 mph 90% 0 in 0 W/m2
04:01 47.7 °F 45.1 °F 29.7 in West 6 mph 9 mph 91% 0 in 0 W/m2
04:06 47.5 °F 45 °F 29.7 in WSW 2.9 mph 10 mph 91% 0 in 0 W/m2
04:11 47.5 °F 45 °F 29.7 in SSW 6 mph 9 mph 91% 0 in 0 W/m2
04:16 47.5 °F 45.3 °F 29.7 in WSW 6.9 mph 7 mph 92% 0 in 0 W/m2
04:21 47.5 °F 45.3 °F 29.7 in West 6 mph 9 mph 92% 0 in 0 W/m2
04:26 47.3 °F 45.1 °F 29.7 in West 2.9 mph 6 mph 92% 0 in 0 W/m2
04:31 47.1 °F 45 °F 29.7 in Calm   9 mph 92% 0 in 0 W/m2
04:36 47.1 °F 45.1 °F 29.7 in Calm   1 mph 93% 0 in 0 W/m2
04:41 47.1 °F 45 °F 29.7 in WNW 0.9 mph 2 mph 92% 0 in 0 W/m2
04:46 47.1 °F 45 °F 29.7 in East 4 mph 4 mph 92% 0 in 0 W/m2
04:51 47.1 °F 45.1 °F 29.7 in NNW 0.9 mph 3 mph 93% 0 in 0 W/m2
04:56 47.1 °F 45.1 °F 29.8 in Calm   6 mph 93% 0 in 0 W/m2
05:01 47.1 °F 45.1 °F 29.8 in WSW 0.9 mph 4 mph 93% 0 in 0 W/m2
05:06 47.1 °F 45.1 °F 29.8 in ESE 0.9 mph 5 mph 93% 0 in 0 W/m2
05:11 47.1 °F 45 °F 29.8 in SW 0.9 mph 2 mph 92% 0 in 0 W/m2
05:16 47.1 °F 45 °F 29.8 in South 0.9 mph 2 mph 92% 0 in 0 W/m2
05:21 47.1 °F 45 °F 29.8 in West 2.9 mph 3 mph 92% 0 in 0 W/m2
05:26 47.1 °F 45 °F 29.8 in WSW 2.9 mph 7 mph 92% 0 in 0 W/m2
05:32 47.1 °F 45 °F 29.8 in West 4 mph 7 mph 92% 0 in 0 W/m2
05:37 47.1 °F 45 °F 29.8 in SW 2 mph 4 mph 92% 0 in 0 W/m2
05:42 47.1 °F 45 °F 29.8 in SE 0.9 mph 7 mph 92% 0 in 0 W/m2
05:47 47.1 °F 45 °F 29.8 in WSW 2 mph 4 mph 92% 0 in 0 W/m2
05:52 47.1 °F 45 °F 29.8 in WSW 4.9 mph 7 mph 92% 0 in 0 W/m2
05:57 47.1 °F 45 °F 29.8 in Calm   4 mph 92% 0 in 0 W/m2
06:02 47.1 °F 45 °F 29.8 in WSW 4.9 mph 6 mph 92% 0 in 0 W/m2
06:07 47.1 °F 45 °F 29.8 in WSW 4 mph 5 mph 92% 0 in 0 W/m2
06:12 47.1 °F 45 °F 29.8 in WSW 4 mph 4 mph 92% 0 in 0 W/m2
06:17 47.1 °F 45 °F 29.8 in WSW 0.9 mph 5 mph 92% 0 in 0 W/m2
06:22 47.1 °F 45 °F 29.8 in Calm   6 mph 92% 0 in 0 W/m2
06:27 47.1 °F 45 °F 29.8 in West 6.9 mph 9 mph 92% 0 in 0 W/m2
06:32 47.1 °F 45 °F 29.8 in NW 0.9 mph 7 mph 92% 0 in 0 W/m2
06:37 47.1 °F 45 °F 29.8 in WSW 2.9 mph 7 mph 92% 0 in 0 W/m2
06:42 46.9 °F 44.8 °F 29.8 in WNW 2.9 mph 6 mph 92% 0 in 0 W/m2
06:47 46.9 °F 44.8 °F 29.8 in West 2.9 mph 4 mph 92% 0 in 0 W/m2
06:52 46.9 °F 44.8 °F 29.8 in WSW 2.9 mph 5 mph 92% 0 in 0 W/m2
06:57 46.9 °F 45 °F 29.8 in NW 2 mph 4 mph 93% 0 in 0 W/m2
07:02 46.9 °F 45 °F 29.8 in WNW 2.9 mph 6 mph 93% 0 in 0 W/m2
07:07 46.9 °F 45 °F 29.8 in West 2.9 mph 7 mph 93% 0 in 0 W/m2
07:12 46.8 °F 44.8 °F 29.8 in West 2 mph 6 mph 93% 0 in 0 W/m2
07:17 46.8 °F 44.8 °F 29.8 in West 4 mph 4 mph 93% 0 in 0 W/m2
07:22 46.8 °F 44.8 °F 29.8 in West 2.9 mph 3 mph 93% 0 in 0 W/m2
07:27 46.8 °F 44.8 °F 29.8 in WNW 2 mph 6 mph 93% 0 in 0 W/m2
07:32 46.8 °F 44.8 °F 29.8 in NW 2 mph 5 mph 93% 0 in 0 W/m2
07:37 46.8 °F 44.8 °F 29.8 in WNW 2.9 mph 7 mph 93% 0 in 0 W/m2
07:42 46.8 °F 44.8 °F 29.8 in WSW 4 mph 7 mph 93% 0 in 0 W/m2
07:47 46.8 °F 44.8 °F 29.8 in WNW 2.9 mph 3 mph 93% 0 in 0 W/m2
07:52 46.8 °F 44.8 °F 29.8 in WNW 2.9 mph 9 mph 93% 0 in 0 W/m2
07:57 46.6 °F 44.6 °F 29.8 in West 4 mph 4 mph 93% 0 in 0 W/m2
08:02 46.6 °F 45 °F 29.8 in West 0.9 mph 8 mph 94% 0 in 0 W/m2
08:07 46.6 °F 45 °F 29.8 in Calm   2 mph 94% 0 in 0 W/m2
08:12 46.6 °F 45 °F 29.8 in Calm   1 mph 94% 0 in 0 W/m2
08:17 46.6 °F 45 °F 29.8 in Calm   2 mph 94% 0 in 0 W/m2
08:22 46.6 °F 45 °F 29.8 in Calm   1 mph 94% 0 in 0 W/m2
08:27 46.4 °F 44.8 °F 29.8 in Calm     94% 0 in 0 W/m2
08:32 46.4 °F 44.8 °F 29.8 in West 0.9 mph 2 mph 94% 0 in 0 W/m2
08:37 46.4 °F 44.8 °F 29.8 in Calm   2 mph 94% 0 in 0 W/m2
08:42 46.2 °F 44.8 °F 29.8 in Calm     95% 0 in 0 W/m2
08:47 46.2 °F 44.8 °F 29.8 in Calm   3 mph 95% 0 in 0 W/m2
08:52 46.2 °F 44.8 °F 29.8 in Calm   1 mph 95% 0 in 0 W/m2
08:57 46.2 °F 44.8 °F 29.8 in Calm   3 mph 95% 0 in 0 W/m2
09:02 46.2 °F 44.8 °F 29.8 in Calm     95% 0 in 5 W/m2
09:07 46.2 °F 44.8 °F 29.8 in Calm     95% 0 in 0 W/m2
09:12 46.2 °F 44.8 °F 29.8 in NW 2 mph 3 mph 95% 0 in 7 W/m2
09:17 46.4 °F 45 °F 29.8 in NW 0.9 mph 2 mph 95% 0 in 9 W/m2
09:22 46.6 °F 45.1 °F 29.8 in Calm     95% 0 in 7 W/m2
09:27 46.6 °F 45.1 °F 29.8 in Calm     95% 0 in 11 W/m2
09:32 46.6 °F 45.1 °F 29.8 in Calm   4 mph 95% 0 in 11 W/m2
09:37 46.6 °F 45.1 °F 29.8 in Calm     95% 0.01 in 9 W/m2
09:42 46.6 °F 45.5 °F 29.8 in Calm   4 mph 96% 0.01 in 11 W/m2
09:47 46.6 °F 45.5 °F 29.8 in Calm   2 mph 96% 0.01 in 9 W/m2
09:52 46.6 °F 45.5 °F 29.8 in Calm   4 mph 96% 0.01 in 11 W/m2
09:57 46.8 °F 45.7 °F 29.8 in Calm   3 mph 96% 0.01 in 11 W/m2
10:02 46.8 °F 45.7 °F 29.8 in NE 2.9 mph 4 mph 96% 0.01 in 14 W/m2
10:07 46.8 °F 45.7 °F 29.8 in SW 0.9 mph 2 mph 96% 0.01 in 12 W/m2
10:12 46.8 °F 45.7 °F 29.8 in NNE 2.9 mph 4 mph 96% 0.02 in 14 W/m2
10:17 46.8 °F 45.7 °F 29.8 in Calm     96% 0.02 in 19 W/m2
10:22 46.8 °F 45.3 °F 29.8 in NNW 2.9 mph 4 mph 95% 0.02 in 16 W/m2
10:27 46.9 °F 45.5 °F 29.8 in Calm   1 mph 95% 0.02 in 19 W/m2
10:32 46.9 °F 45.5 °F 29.8 in Calm   3 mph 95% 0.02 in 19 W/m2
10:37 46.9 °F 45.5 °F 29.8 in NNW 0.9 mph 2 mph 95% 0.02 in 26 W/m2
10:42 46.9 °F 45.5 °F 29.8 in ENE 2.9 mph 3 mph 95% 0.02 in 32 W/m2
10:47 46.9 °F 45.5 °F 29.8 in Calm   3 mph 95% 0.03 in 39 W/m2
10:52 47.1 °F 45.7 °F 29.8 in WSW 2 mph 3 mph 95% 0.03 in 32 W/m2
10:57 47.1 °F 45.7 °F 29.8 in Calm   2 mph 95% 0.03 in 37 W/m2
11:02 47.1 °F 45.7 °F 29.8 in NW 2 mph 4 mph 95% 0.03 in 51 W/m2
11:07 47.1 °F 45.7 °F 29.8 in SE 0.9 mph 2 mph 95% 0.02 in 79 W/m2
11:12 47.1 °F 45.7 °F 29.8 in Calm   4 mph 95% 0.03 in 60 W/m2
11:17 47.3 °F 45.9 °F 29.8 in Calm   3 mph 95% 0.03 in 49 W/m2
11:22 47.5 °F 46 °F 29.8 in NNW 2 mph 4 mph 95% 0.03 in 58 W/m2
11:27 47.5 °F 46 °F 29.8 in NNW 2 mph 6 mph 95% 0.02 in 69 W/m2
11:32 47.5 °F 46 °F 29.8 in NNW 2.9 mph 4 mph 95% 0.02 in 60 W/m2
11:37 47.5 °F 46 °F 29.8 in West 2.9 mph 6 mph 95% 0.02 in 42 W/m2
11:42 47.7 °F 46.2 °F 29.8 in WNW 0.9 mph 6 mph 95% 0.02 in 54 W/m2
11:47 47.5 °F 46 °F 29.8 in WSW 0.9 mph 3 mph 95% 0.01 in 47 W/m2
11:52 47.5 °F 46 °F 29.8 in NW 4 mph 4 mph 95% 0.01 in 25 W/m2
11:57 47.5 °F 46 °F 29.8 in West 4 mph 6 mph 95% 0.01 in 30 W/m2
12:02 47.5 °F 46 °F 29.8 in ENE 2 mph 2 mph 95% 0.01 in 37 W/m2
12:07 47.5 °F 46 °F 29.8 in NNE 2 mph 2 mph 95% 0.01 in 47 W/m2
12:12 47.7 °F 46 °F 29.8 in NNW 0.9 mph 2 mph 94% 0 in 62 W/m2
12:17 47.7 °F 46 °F 29.8 in WSW 2.9 mph 6 mph 94% 0 in 77 W/m2
12:22 47.7 °F 46 °F 29.8 in SW 2 mph 4 mph 94% 0.01 in 95 W/m2
12:27 47.7 °F 46 °F 29.8 in NW 2.9 mph 3 mph 94% 0.01 in 79 W/m2
12:32 47.7 °F 46 °F 29.8 in NW 2 mph 3 mph 94% 0.01 in 72 W/m2
12:37 47.7 °F 46 °F 29.8 in Calm   3 mph 94% 0.02 in 88 W/m2
12:42 47.7 °F 46 °F 29.8 in West 2.9 mph 5 mph 94% 0.02 in 79 W/m2
12:47 47.7 °F 46 °F 29.8 in Calm   4 mph 94% 0.02 in 74 W/m2
12:52 47.7 °F 46 °F 29.8 in NW 4 mph 5 mph 94% 0.02 in 76 W/m2
12:57 47.7 °F 46 °F 29.8 in WNW 0.9 mph 2 mph 94% 0.02 in 69 W/m2
13:02 47.7 °F 46 °F 29.8 in Calm   1 mph 94% 0.02 in 72 W/m2
13:07 47.7 °F 46 °F 29.8 in NW 0.9 mph 3 mph 94% 0.02 in 67 W/m2
13:12 47.7 °F 46 °F 29.8 in NNW 0.9 mph 3 mph 94% 0.02 in 63 W/m2
13:17 47.7 °F 46 °F 29.8 in Calm   3 mph 94% 0.02 in 67 W/m2
13:22 47.7 °F 46 °F 29.8 in NE 2 mph 2 mph 94% 0.01 in 53 W/m2
13:27 47.7 °F 46 °F 29.8 in Calm   3 mph 94% 0.01 in 51 W/m2
13:32 47.7 °F 46 °F 29.8 in Calm   2 mph 94% 0.01 in 54 W/m2
13:37 47.7 °F 46 °F 29.8 in Calm   1 mph 94% 0 in 49 W/m2
13:42 47.8 °F 46.2 °F 29.8 in NE 0.9 mph 3 mph 94% 0 in 51 W/m2
13:47 47.8 °F 46.2 °F 29.8 in Calm   2 mph 94% 0 in 58 W/m2
13:52 47.8 °F 46.2 °F 29.8 in NW 0.9 mph 9 mph 94% 0 in 58 W/m2
13:57 47.8 °F 46.2 °F 29.8 in Calm   2 mph 94% 0 in 53 W/m2
14:02 47.8 °F 46.2 °F 29.8 in Calm   3 mph 94% 0 in 42 W/m2
14:07 47.8 °F 46.2 °F 29.8 in Calm   2 mph 94% 0 in 35 W/m2
14:12 48 °F 46.4 °F 29.8 in ENE 2 mph 3 mph 94% 0 in 32 W/m2
14:17 48 °F 46.4 °F 29.8 in Calm   4 mph 94% 0 in 30 W/m2
14:22 48 °F 46.4 °F 29.8 in Calm   4 mph 94% 0 in 30 W/m2
14:27 48 °F 46.6 °F 29.8 in NE 2.9 mph 3 mph 95% 0 in 33 W/m2
14:32 48 °F 46.6 °F 29.8 in ENE 2.9 mph 3 mph 95% 0 in 30 W/m2
14:37 48 °F 46.6 °F 29.8 in NNE 0.9 mph 2 mph 95% 0 in 30 W/m2
14:42 48 °F 46.6 °F 29.8 in Calm   3 mph 95% 0 in 26 W/m2
14:47 48.2 °F 46.8 °F 29.8 in NW 0.9 mph 3 mph 95% 0 in 28 W/m2
14:52 48.2 °F 46.8 °F 29.8 in North 0.9 mph 3 mph 95% 0.01 in 32 W/m2
14:57 48.2 °F 46.8 °F 29.8 in North 0.9 mph 3 mph 95% 0.01 in 26 W/m2
15:02 48.4 °F 46.9 °F 29.8 in West 2 mph 4 mph 95% 0.01 in 23 W/m2
15:07 48.4 °F 46.9 °F 29.8 in Calm   2 mph 95% 0.01 in 25 W/m2
15:12 48.4 °F 46.9 °F 29.8 in ENE 2 mph 3 mph 95% 0.02 in 28 W/m2
15:17 48.4 °F 46.9 °F 29.8 in Calm   2 mph 95% 0.02 in 30 W/m2
15:22 48.4 °F 46.9 °F 29.8 in NE 0.9 mph 3 mph 95% 0.02 in 23 W/m2
15:27 48.6 °F 47.1 °F 29.8 in NE 0.9 mph 2 mph 95% 0.02 in 19 W/m2
15:32 48.6 °F 47.1 °F 29.8 in NE 0.9 mph 3 mph 95% 0.02 in 19 W/m2
15:37 48.6 °F 47.1 °F 29.8 in NE 2 mph 2 mph 95% 0.02 in 16 W/m2
15:42 48.6 °F 47.1 °F 29.8 in Calm   2 mph 95% 0.02 in 18 W/m2
15:47 48.7 °F 47.3 °F 29.8 in Calm   1 mph 95% 0.02 in 14 W/m2
15:52 48.7 °F 47.3 °F 29.8 in East 2.9 mph 3 mph 95% 0.02 in 16 W/m2
15:57 48.7 °F 47.3 °F 29.8 in Calm   1 mph 95% 0.02 in 14 W/m2
16:02 48.9 °F 47.8 °F 29.8 in WNW 4 mph 4 mph 96% 0.02 in 9 W/m2
16:07 49.1 °F 48 °F 29.8 in North 0.9 mph 3 mph 96% 0.02 in 9 W/m2
16:12 49.3 °F 48.2 °F 29.8 in NW 0.9 mph 4 mph 96% 0.02 in 9 W/m2
16:17 49.3 °F 48.2 °F 29.8 in Calm   2 mph 96% 0.02 in 7 W/m2
16:22 49.3 °F 48.2 °F 29.8 in NE 2 mph 2 mph 96% 0.02 in 5 W/m2
16:27 49.5 °F 48.4 °F 29.8 in Calm   2 mph 96% 0.02 in 5 W/m2
16:33 49.5 °F 48.4 °F 29.8 in Calm   1 mph 96% 0.03 in 0 W/m2
16:38 49.6 °F 48.6 °F 29.8 in NE 2 mph 3 mph 96% 0.02 in 0 W/m2
16:43 49.6 °F 48.6 °F 29.8 in West 2 mph 3 mph 96% 0.02 in 0 W/m2
16:48 49.8 °F 48.7 °F 29.8 in NNW 2 mph 4 mph 96% 0.02 in 0 W/m2
16:53 50 °F 48.9 °F 29.8 in NNW 2 mph 3 mph 96% 0.02 in 0 W/m2
16:58 50.2 °F 49.1 °F 29.8 in WSW 2 mph 4 mph 96% 0.02 in 0 W/m2
17:03 50.2 °F 49.1 °F 29.8 in Calm   1 mph 96% 0.03 in 0 W/m2
17:08 50.2 °F 49.1 °F 29.8 in NNW 0.9 mph 3 mph 96% 0.02 in 0 W/m2
17:13 50.4 °F 49.3 °F 29.8 in NNE 0.9 mph 6 mph 96% 0.02 in 0 W/m2
17:18 50.5 °F 49.5 °F 29.8 in NNW 2 mph 2 mph 96% 0.02 in 0 W/m2
17:23 50.5 °F 49.5 °F 29.8 in NNW 0.9 mph 4 mph 96% 0.02 in 0 W/m2
17:28 50.7 °F 49.6 °F 29.8 in WSW 0.9 mph 3 mph 96% 0.02 in 0 W/m2
17:33 51.1 °F 50 °F 29.8 in NNW 2 mph 9 mph 96% 0.02 in 0 W/m2
17:38 51.3 °F 50.2 °F 29.8 in WNW 2 mph 4 mph 96% 0.02 in 0 W/m2
17:43 51.4 °F 50.4 °F 29.8 in WNW 0.9 mph 2 mph 96% 0.02 in 0 W/m2
17:48 51.6 °F 50.5 °F 29.8 in North 2.9 mph 6 mph 96% 0.02 in 0 W/m2
17:53 51.6 °F 50.5 °F 29.8 in NW 2 mph 3 mph 96% 0.02 in 0 W/m2
17:58 52 °F 50.9 °F 29.8 in WNW 2.9 mph 4 mph 96% 0.02 in 0 W/m2
18:03 52.3 °F 51.3 °F 29.8 in NW 4 mph 7 mph 96% 0.02 in 0 W/m2
18:08 52.5 °F 51.4 °F 29.8 in NNW 2 mph 4 mph 96% 0.02 in 0 W/m2
18:13 52.9 °F 51.8 °F 29.8 in WSW 2 mph 6 mph 96% 0.02 in 0 W/m2
18:18 53.1 °F 52 °F 29.8 in NW 2.9 mph 5 mph 96% 0.02 in 0 W/m2
18:23 53.2 °F 52.2 °F 29.8 in WNW 0.9 mph 10 mph 96% 0.02 in 0 W/m2
18:28 53.4 °F 52.3 °F 29.8 in WNW 4 mph 17 mph 96% 0.01 in 0 W/m2
18:33 53.8 °F 52.7 °F 29.8 in WNW 2 mph 8 mph 96% 0.01 in 0 W/m2
18:38 54 °F 52.9 °F 29.8 in NW 4 mph 6 mph 96% 0.01 in 0 W/m2
18:43 54.1 °F 53.1 °F 29.8 in WNW 4 mph 10 mph 96% 0.01 in 0 W/m2
18:48 54.3 °F 53.2 °F 29.8 in NW 4 mph 8 mph 96% 0.01 in 0 W/m2
18:53 54.5 °F 53.4 °F 29.8 in WNW 6.9 mph 13 mph 96% 0.02 in 0 W/m2
18:58 54.9 °F 53.8 °F 29.8 in West 10.1 mph 11 mph 96% 0.01 in 0 W/m2
19:03 55 °F 54 °F 29.8 in SW 10.1 mph 15 mph 96% 0.01 in 0 W/m2
19:08 55.2 °F 54.1 °F 29.8 in WNW 2 mph 9 mph 96% 0.01 in 0 W/m2
19:13 55.6 °F 54.5 °F 29.8 in West 6.9 mph 15 mph 96% 0.01 in 0 W/m2
19:18 55.6 °F 54.1 °F 29.8 in WSW 4.9 mph 8 mph 95% 0.01 in 0 W/m2
19:23 55.8 °F 54.3 °F 29.8 in WNW 8.1 mph 15 mph 95% 0.01 in 0 W/m2
19:28 55.9 °F 54.5 °F 29.8 in West 6.9 mph 15 mph 95% 0.01 in 0 W/m2
19:33 56.1 °F 54.5 °F 29.8 in WSW 8.9 mph 18 mph 94% 0.01 in 0 W/m2
19:38 56.3 °F 54.7 °F 29.8 in West 6.9 mph 12 mph 94% 0.01 in 0 W/m2
19:43 56.5 °F 54.9 °F 29.8 in West 18 mph 18 mph 94% 0.01 in 0 W/m2
19:48 56.5 °F 54.9 °F 29.8 in WNW 13 mph 13 mph 94% 0.01 in 0 W/m2
19:53 56.5 °F 54.5 °F 29.8 in West 8.9 mph 16 mph 93% 0 in 0 W/m2
19:58 56.7 °F 54.7 °F 29.8 in WNW 10.1 mph 13 mph 93% 0 in 0 W/m2
20:03 56.7 °F 54.7 °F 29.8 in WSW 13 mph 15 mph 93% 0 in 0 W/m2
20:08 56.5 °F 54.5 °F 29.8 in WNW 4 mph 9 mph 93% 0 in 0 W/m2
20:13 56.3 °F 54.3 °F 29.8 in WNW 8.9 mph 12 mph 93% 0 in 0 W/m2
20:18 56.1 °F 54.5 °F 29.8 in West 6 mph 10 mph 94% 0 in 0 W/m2
20:23 56.1 °F 54.5 °F 29.8 in West 8.1 mph 12 mph 94% 0.01 in 0 W/m2
20:28 56.1 °F 54.5 °F 29.8 in West 11 mph 17 mph 94% 0.01 in 0 W/m2
20:33 56.1 °F 54.5 °F 29.8 in WNW 8.1 mph 14 mph 94% 0.01 in 0 W/m2
20:38 56.1 °F 54.5 °F 29.8 in WSW 4.9 mph 15 mph 94% 0.01 in 0 W/m2
20:43 56.1 °F 54.5 °F 29.8 in West 12.1 mph 12 mph 94% 0.01 in 0 W/m2
20:48 56.3 °F 54.3 °F 29.8 in West 10.1 mph 20 mph 93% 0.01 in 0 W/m2
20:53 56.3 °F 54.3 °F 29.8 in WNW 4.9 mph 14 mph 93% 0.01 in 0 W/m2
20:58 56.5 °F 54.5 °F 29.8 in West 6 mph 20 mph 93% 0.01 in 0 W/m2
21:03 56.5 °F 54.5 °F 29.8 in NW 6 mph 15 mph 93% 0.01 in 0 W/m2
21:08 56.5 °F 54.5 °F 29.9 in WNW 4 mph 20 mph 93% 0.01 in 0 W/m2
21:13 56.5 °F 54.5 °F 29.8 in SW 8.1 mph 16 mph 93% 0.01 in 0 W/m2
21:18 56.5 °F 54.5 °F 29.9 in West 6 mph 20 mph 93% 0.01 in 0 W/m2
21:23 56.1 °F 54.1 °F 29.9 in WSW 4.9 mph 15 mph 93% 0 in 0 W/m2
21:28 56.1 °F 54.1 °F 29.9 in WSW 14.1 mph 20 mph 93% 0.01 in 0 W/m2
21:33 56.1 °F 54.1 °F 29.9 in WSW 10.1 mph 14 mph 93% 0.01 in 0 W/m2
21:38 56.1 °F 54.1 °F 29.9 in NW 8.1 mph 16 mph 93% 0.01 in 0 W/m2
21:43 56.1 °F 54.1 °F 29.9 in WNW 8.1 mph 14 mph 93% 0.01 in 0 W/m2
21:48 56.1 °F 54.1 °F 29.9 in WNW 4.9 mph 15 mph 93% 0.01 in 0 W/m2
21:53 56.1 °F 54.1 °F 29.9 in NNW 8.9 mph 13 mph 93% 0.01 in 0 W/m2
21:58 56.1 °F 54.1 °F 29.9 in WNW 8.1 mph 11 mph 93% 0.01 in 0 W/m2
22:03 56.1 °F 53.8 °F 29.9 in WNW 8.1 mph 12 mph 92% 0.01 in 0 W/m2
22:08 56.1 °F 53.8 °F 29.9 in West 4 mph 10 mph 92% 0.01 in 0 W/m2
22:13 56.1 °F 53.8 °F 29.9 in WSW 13 mph 14 mph 92% 0.01 in 0 W/m2
22:18 56.3 °F 54 °F 29.9 in West 8.9 mph 14 mph 92% 0.01 in 0 W/m2
22:23 56.3 °F 54 °F 29.9 in WSW 10.1 mph 13 mph 92% 0.01 in 0 W/m2
22:28 56.3 °F 54 °F 29.9 in WNW 10.1 mph 11 mph 92% 0 in 0 W/m2
22:33 56.3 °F 54 °F 29.9 in NW 8.1 mph 12 mph 92% 0 in 0 W/m2
22:38 56.3 °F 53.8 °F 29.9 in West 6.9 mph 13 mph 91% 0 in 0 W/m2
22:43 56.1 °F 53.6 °F 29.9 in WSW 6 mph 8 mph 91% 0 in 0 W/m2
22:48 56.1 °F 53.6 °F 29.9 in NW 4 mph 14 mph 91% 0 in 0 W/m2
22:53 55.9 °F 53.4 °F 29.9 in WNW 8.9 mph 11 mph 91% 0 in 0 W/m2
22:58 55.9 °F 53.4 °F 29.9 in West 8.9 mph 14 mph 91% 0 in 0 W/m2
23:03 55.9 °F 53.4 °F 29.9 in NW 4.9 mph 12 mph 91% 0 in 0 W/m2
23:08 55.9 °F 53.4 °F 29.9 in NW 6 mph 9 mph 91% 0 in 0 W/m2
23:13 55.9 °F 53.4 °F 29.9 in WNW 6.9 mph 9 mph 91% 0 in 0 W/m2
23:18 55.9 °F 53.4 °F 29.9 in WNW 6.9 mph 9 mph 91% 0 in 0 W/m2
23:23 55.9 °F 53.4 °F 29.9 in WNW 0.9 mph 9 mph 91% 0 in 0 W/m2
23:28 55.8 °F 53.2 °F 29.9 in WSW 13 mph 13 mph 91% 0 in 0 W/m2
23:33 55.8 °F 53.4 °F 29.9 in WNW 2 mph 12 mph 92% 0 in 0 W/m2
Juneau County Weather
Compliments of Weather Underground - 4 mb